Home > Products > Valid Products > TAF

000
FTUS41 KCTP 231729
TAFJST
TAF
KJST 231729Z 2318/2418 26009KT P6SM SCT040 BKN120
     FM232000 28012KT P6SM VCTS BKN040CB
      TEMPO 2320/2323 30008KT 4SM -TSRA OVC030CB
     FM240000 31010KT P6SM VCSH BKN025
     FM240400 32006KT P6SM VCSH BKN012
     FM240700 33007KT P6SM OVC007
     FM241400 35009KT P6SM SCT015 BKN035=



000
FTUS41 KCTP 231729
TAFBFD
TAF
KBFD 231729Z 2318/2418 28009KT P6SM VCTS BKN035CB
     FM232100 31010G17KT P6SM BKN007
     FM240300 35005KT 6SM BR OVC012
      TEMPO 2409/2412 3SM BR BKN007
     FM241300 35009KT P6SM BKN040=



000
FTUS41 KCTP 231729
TAFMDT
TAF
KMDT 231729Z 2318/2418 VRB05KT P6SM VCSH SCT050
     FM232000 27007KT P6SM VCTS BKN050CB
      TEMPO 2322/2402 31010G19KT 5SM -SHRA OVC035
     FM240300 32007KT 6SM BR VCSH OVC040
     FM240600 33010KT 5SM BR SCT050 BKN100
     FM241300 33008KT P6SM BKN120=



000
FTUS41 KCTP 231729
TAFUNV
TAF
KUNV 231729Z 2318/2418 26009G15KT P6SM FEW050 BKN100
     FM231900 28012G17KT P6SM VCTS BKN040CB
      TEMPO 2320/2323 30008KT 4SM -TSRA OVC030CB
     FM240000 34009G15KT 6SM BR VCSH BKN035
     FM240300 34005KT 5SM BR BKN020
     FM241200 35009KT P6SM SCT040=



000
FTUS41 KCTP 231729
TAFAOO
TAF
KAOO 231729Z 2318/2418 25009G17KT P6SM SCT040 BKN100
     FM232100 28012G20KT P6SM VCTS BKN040CB
      TEMPO 2321/2324 30008KT 4SM -TSRA OVC030CB
     FM240000 31010G17KT P6SM VCSH BKN030
     FM240400 32008KT 5SM BR SCT020 BKN080
     FM240800 33005KT 5SM BR BKN025
     FM241200 35009KT P6SM SCT040=



000
FTUS41 KCTP 231729
TAFIPT
TAF
KIPT 231729Z 2318/2418 VRB05KT 6SM -TSRA BKN035CB
      TEMPO 2320/2323 27010KT 3SM -TSRA OVC025CB
     FM240000 29009KT 6SM BR VCSH BKN035
     FM240300 29006KT 3SM BR BKN020
     FM241300 32009KT P6SM SCT040=



000
FTUS41 KCTP 231729
TAFIPT
TAF
KIPT 231729Z 2318/2418 VRB05KT 6SM -TSRA BKN035CB
      TEMPO 2320/2323 27010KT 3SM -TSRA OVC025CB
     FM240000 29009KT 6SM BR VCSH BKN035
     FM240300 29006KT 3SM BR BKN020
     FM241300 32009KT P6SM SCT040=



000
FTUS41 KCTP 231729
TAFAOO
TAF
KAOO 231729Z 2318/2418 25009G17KT P6SM SCT040 BKN100
     FM232100 28012G20KT P6SM VCTS BKN040CB
      TEMPO 2321/2324 30008KT 4SM -TSRA OVC030CB
     FM240000 31010G17KT P6SM VCSH BKN030
     FM240400 32008KT 5SM BR SCT020 BKN080
     FM240800 33005KT 5SM BR BKN025
     FM241200 35009KT P6SM SCT040=



000
FTUS41 KCTP 231729
TAFUNV
TAF
KUNV 231729Z 2318/2418 26009G15KT P6SM FEW050 BKN100
     FM231900 28012G17KT P6SM VCTS BKN040CB
      TEMPO 2320/2323 30008KT 4SM -TSRA OVC030CB
     FM240000 34009G15KT 6SM BR VCSH BKN035
     FM240300 34005KT 5SM BR BKN020
     FM241200 35009KT P6SM SCT040=



000
FTUS41 KCTP 231729
TAFBFD
TAF
KBFD 231729Z 2318/2418 28009KT P6SM VCTS BKN035CB
     FM232100 31010G17KT P6SM BKN007
     FM240300 35005KT 6SM BR OVC012
      TEMPO 2409/2412 3SM BR BKN007
     FM241300 35009KT P6SM BKN040=



000
FTUS41 KCTP 231729
TAFJST
TAF
KJST 231729Z 2318/2418 26009KT P6SM SCT040 BKN120
     FM232000 28012KT P6SM VCTS BKN040CB
      TEMPO 2320/2323 30008KT 4SM -TSRA OVC030CB
     FM240000 31010KT P6SM VCSH BKN025
     FM240400 32006KT P6SM VCSH BKN012
     FM240700 33007KT P6SM OVC007
     FM241400 35009KT P6SM SCT015 BKN035=



000
FTUS41 KCTP 231729
TAFMDT
TAF
KMDT 231729Z 2318/2418 VRB05KT P6SM VCSH SCT050
     FM232000 27007KT P6SM VCTS BKN050CB
      TEMPO 2322/2402 31010G19KT 5SM -SHRA OVC035
     FM240300 32007KT 6SM BR VCSH OVC040
     FM240600 33010KT 5SM BR SCT050 BKN100
     FM241300 33008KT P6SM BKN120=



000
FTUS41 KCTP 231609 AAB
TAFBFD
TAF AMD
KBFD 231609Z 2316/2412 27009KT P6SM SCT020 BKN100
     FM231800 28009KT P6SM VCTS BKN035CB
     FM232200 32010KT P6SM BKN025
     FM240300 35005KT P6SM BKN015=



000
FTUS41 KCTP 231609 AAB
TAFBFD
TAF AMD
KBFD 231609Z 2316/2412 27009KT P6SM SCT020 BKN100
     FM231800 28009KT P6SM VCTS BKN035CB
     FM232200 32010KT P6SM BKN025
     FM240300 35005KT P6SM BKN015=



000
FTUS41 KCTP 231554 AAA
TAFUNV
TAF AMD
KUNV 231554Z 2316/2412 23009G15KT P6SM FEW050 BKN100
     FM231900 26010G20KT P6SM VCTS BKN050CB
     FM240000 29007KT P6SM SCT050 BKN100
     FM240600 35004KT P6SM BKN040=



000
FTUS41 KCTP 231554 AAA
TAFJST
TAF AMD
KJST 231554Z 2316/2412 23009KT P6SM SCT040 BKN120
     FM231900 27012KT P6SM VCTS BKN040CB
     FM232300 30010KT P6SM BKN025
     FM240400 33006KT P6SM BKN015=



000
FTUS41 KCTP 231554 AAA
TAFJST
TAF AMD
KJST 231554Z 2316/2412 23009KT P6SM SCT040 BKN120
     FM231900 27012KT P6SM VCTS BKN040CB
     FM232300 30010KT P6SM BKN025
     FM240400 33006KT P6SM BKN015=



000
FTUS41 KCTP 231554 AAA
TAFAOO
TAF AMD
KAOO 231554Z 2316/2412 23009G17KT P6SM SCT040 BKN100
     FM231900 25010G20KT P6SM VCTS BKN050CB
     FM232300 28010KT P6SM SCT050 BKN100
     FM240500 34004KT P6SM BKN040=



000
FTUS41 KCTP 231554 AAA
TAFBFD
TAF AMD
KBFD 231554Z 2316/2412 27009KT P6SM BKN019 BKN100
     FM231800 28009KT P6SM VCTS BKN035CB
     FM232200 32010KT P6SM BKN025
     FM240300 35005KT P6SM BKN015=



000
FTUS41 KCTP 231554 AAA
TAFIPT
TAF AMD
KIPT 231554Z 2316/2412 20006KT P6SM BKN035
     FM232000 24007KT P6SM VCTS BKN050CB
     FM240100 31005KT P6SM SCT050 BKN100
     FM240600 29004KT P6SM BKN040=



000
FTUS41 KCTP 231554 AAA
TAFMDT
TAF AMD
KMDT 231554Z 2316/2412 VRB05KT P6SM VCSH SCT050
     FM231800 27005KT P6SM VCTS BKN050CB
      TEMPO 2319/2322 5SM -SHRA OVC035
     FM240600 33005KT P6SM SCT050 BKN100=



000
FTUS41 KCTP 231554 AAA
TAFMDT
TAF AMD
KMDT 231554Z 2316/2412 VRB05KT P6SM VCSH SCT050
     FM231800 27005KT P6SM VCTS BKN050CB
      TEMPO 2319/2322 5SM -SHRA OVC035
     FM240600 33005KT P6SM SCT050 BKN100=



000
FTUS41 KCTP 231554 AAA
TAFBFD
TAF AMD
KBFD 231554Z 2316/2412 27009KT P6SM BKN019 BKN100
     FM231800 28009KT P6SM VCTS BKN035CB
     FM232200 32010KT P6SM BKN025
     FM240300 35005KT P6SM BKN015=



000
FTUS41 KCTP 231554 AAA
TAFUNV
TAF AMD
KUNV 231554Z 2316/2412 23009G15KT P6SM FEW050 BKN100
     FM231900 26010G20KT P6SM VCTS BKN050CB
     FM240000 29007KT P6SM SCT050 BKN100
     FM240600 35004KT P6SM BKN040=



000
FTUS41 KCTP 231554 AAA
TAFAOO
TAF AMD
KAOO 231554Z 2316/2412 23009G17KT P6SM SCT040 BKN100
     FM231900 25010G20KT P6SM VCTS BKN050CB
     FM232300 28010KT P6SM SCT050 BKN100
     FM240500 34004KT P6SM BKN040=



000
FTUS41 KCTP 231554 AAA
TAFIPT
TAF AMD
KIPT 231554Z 2316/2412 20006KT P6SM BKN035
     FM232000 24007KT P6SM VCTS BKN050CB
     FM240100 31005KT P6SM SCT050 BKN100
     FM240600 29004KT P6SM BKN040=



000
FTUS41 KCTP 231120
TAFMDT
TAF
KMDT 231120Z 2312/2412 VRB03KT P6SM FEW100
     FM231500 23005KT P6SM FEW050 SCT100
     FM232100 27005KT P6SM VCTS BKN050CB
     FM240600 33005KT P6SM SCT050 BKN100=



000
FTUS41 KCTP 231120
TAFJST
TAF
KJST 231120Z 2312/2412 23005KT P6SM SCT040
     FM231900 27010KT P6SM VCTS BKN040CB
     FM232300 30008KT P6SM BKN025
     FM240400 33005KT P6SM BKN015=



000
FTUS41 KCTP 231120
TAFMDT
TAF
KMDT 231120Z 2312/2412 VRB03KT P6SM FEW100
     FM231500 23005KT P6SM FEW050 SCT100
     FM232100 27005KT P6SM VCTS BKN050CB
     FM240600 33005KT P6SM SCT050 BKN100=



000
FTUS41 KCTP 231120
TAFAOO
TAF
KAOO 231120Z 2312/2412 00000KT 5SM BR FEW100
     FM231300 22004KT P6SM FEW050 SCT100
     FM231900 25008KT P6SM VCTS BKN050CB
     FM232300 28008KT P6SM SCT050 BKN100
     FM240500 34004KT P6SM BKN040=



000
FTUS41 KCTP 231120
TAFIPT
TAF
KIPT 231120Z 2312/2412 VRB03KT 6SM HZ SCT005
     FM231300 VRB03KT P6SM FEW050 SCT100
     FM232000 24007KT P6SM VCTS BKN050CB
     FM240100 31005KT P6SM SCT050 BKN100
     FM240600 29004KT P6SM BKN040=



000
FTUS41 KCTP 231120
TAFIPT
TAF
KIPT 231120Z 2312/2412 VRB03KT 6SM HZ SCT005
     FM231300 VRB03KT P6SM FEW050 SCT100
     FM232000 24007KT P6SM VCTS BKN050CB
     FM240100 31005KT P6SM SCT050 BKN100
     FM240600 29004KT P6SM BKN040=



000
FTUS41 KCTP 231120
TAFBFD
TAF
KBFD 231120Z 2312/2412 22004KT 5SM BR SCT100
     FM231300 23005KT P6SM SCT050 BKN100
     FM231800 25008KT P6SM VCTS BKN050CB
     FM232200 32008KT P6SM BKN025
     FM240300 35004KT P6SM BKN015=



000
FTUS41 KCTP 231120
TAFBFD
TAF
KBFD 231120Z 2312/2412 22004KT 5SM BR SCT100
     FM231300 23005KT P6SM SCT050 BKN100
     FM231800 25008KT P6SM VCTS BKN050CB
     FM232200 32008KT P6SM BKN025
     FM240300 35004KT P6SM BKN015=



000
FTUS41 KCTP 231120
TAFJST
TAF
KJST 231120Z 2312/2412 23005KT P6SM SCT040
     FM231900 27010KT P6SM VCTS BKN040CB
     FM232300 30008KT P6SM BKN025
     FM240400 33005KT P6SM BKN015=



000
FTUS41 KCTP 231120
TAFAOO
TAF
KAOO 231120Z 2312/2412 00000KT 5SM BR FEW100
     FM231300 22004KT P6SM FEW050 SCT100
     FM231900 25008KT P6SM VCTS BKN050CB
     FM232300 28008KT P6SM SCT050 BKN100
     FM240500 34004KT P6SM BKN040=



000
FTUS41 KCTP 231120
TAFUNV
TAF
KUNV 231120Z 2312/2412 23005KT P6SM FEW050 SCT100
     FM231900 26008KT P6SM VCTS BKN050CB
     FM240000 29005KT P6SM SCT050 BKN100
     FM240600 35004KT P6SM BKN040=



000
FTUS41 KCTP 231120
TAFUNV
TAF
KUNV 231120Z 2312/2412 23005KT P6SM FEW050 SCT100
     FM231900 26008KT P6SM VCTS BKN050CB
     FM240000 29005KT P6SM SCT050 BKN100
     FM240600 35004KT P6SM BKN040=



000
FTUS41 KCTP 230945 AAA
TAFBFD
TAF AMD
KBFD 230945Z 2310/2406 22004KT P6SM SCT035 BKN150
     FM231500 25008KT P6SM VCTS BKN040CB
     FM232000 31010KT P6SM BKN025
     FM240300 34005KT P6SM BKN015=



000
FTUS41 KCTP 230945 AAA
TAFAOO
TAF AMD
KAOO 230945Z 2310/2406 00000KT 3SM BR FEW050
     FM231200 22004KT P6SM SCT050
     FM231700 25008KT P6SM VCTS BKN050CB
     FM232200 28008KT P6SM SCT050 BKN100
     FM240400 33004KT P6SM BKN040=



000
FTUS41 KCTP 230945 AAA
TAFAOO
TAF AMD
KAOO 230945Z 2310/2406 00000KT 3SM BR FEW050
     FM231200 22004KT P6SM SCT050
     FM231700 25008KT P6SM VCTS BKN050CB
     FM232200 28008KT P6SM SCT050 BKN100
     FM240400 33004KT P6SM BKN040=



000
FTUS41 KCTP 230945 AAA
TAFBFD
TAF AMD
KBFD 230945Z 2310/2406 22004KT P6SM SCT035 BKN150
     FM231500 25008KT P6SM VCTS BKN040CB
     FM232000 31010KT P6SM BKN025
     FM240300 34005KT P6SM BKN015=



000
FTUS41 KCTP 230945 AAA
TAFUNV
TAF AMD
KUNV 230945Z 2310/2406 22005KT P6SM SCT050
     FM231800 25008KT P6SM VCTS BKN050CB
     FM232300 29008KT P6SM SCT050 BKN100
     FM240500 35004KT P6SM BKN040=



000
FTUS41 KCTP 230945 AAA
TAFIPT
TAF AMD
KIPT 230945Z 2310/2406 VRB03KT 6SM HZ FEW004
     FM231300 VRB03KT P6SM FEW050 SCT200
     FM231900 24007KT P6SM VCTS BKN050CB
     FM240000 31005KT P6SM SCT050 BKN100
     FM240500 29004KT P6SM BKN040=



000
FTUS41 KCTP 230945 AAA
TAFJST
TAF AMD
KJST 230945Z 2310/2406 23005KT P6SM SCT040
     FM231700 26010KT P6SM VCTS BKN040CB
     FM232200 29010KT P6SM BKN025
     FM240400 32005KT P6SM BKN015=



000
FTUS41 KCTP 230945 AAA
TAFIPT
TAF AMD
KIPT 230945Z 2310/2406 VRB03KT 6SM HZ FEW004
     FM231300 VRB03KT P6SM FEW050 SCT200
     FM231900 24007KT P6SM VCTS BKN050CB
     FM240000 31005KT P6SM SCT050 BKN100
     FM240500 29004KT P6SM BKN040=



000
FTUS41 KCTP 230945 AAA
TAFJST
TAF AMD
KJST 230945Z 2310/2406 23005KT P6SM SCT040
     FM231700 26010KT P6SM VCTS BKN040CB
     FM232200 29010KT P6SM BKN025
     FM240400 32005KT P6SM BKN015=



000
FTUS41 KCTP 230945 AAA
TAFMDT
TAF AMD
KMDT 230945Z 2310/2406 21005KT P6SM FEW100
     FM231500 23007KT P6SM SCT050
     FM232000 27008KT P6SM VCTS BKN050CB=



000
FTUS41 KCTP 230945 AAA
TAFMDT
TAF AMD
KMDT 230945Z 2310/2406 21005KT P6SM FEW100
     FM231500 23007KT P6SM SCT050
     FM232000 27008KT P6SM VCTS BKN050CB=



000
FTUS41 KCTP 230945 AAA
TAFUNV
TAF AMD
KUNV 230945Z 2310/2406 22005KT P6SM SCT050
     FM231800 25008KT P6SM VCTS BKN050CB
     FM232300 29008KT P6SM SCT050 BKN100
     FM240500 35004KT P6SM BKN040=



000
FTUS41 KCTP 230556
TAFJST
TAF
KJST 230556Z 2306/2406 23005KT P6SM SCT040
     FM231700 26010KT P6SM VCTS BKN040CB
     FM232200 29010KT P6SM BKN025
     FM240400 32005KT P6SM BKN015=



000
FTUS41 KCTP 230556
TAFAOO
TAF
KAOO 230556Z 2306/2406 22004KT P6SM SCT050
     FM231700 25008KT P6SM VCTS BKN050CB
     FM232200 28008KT P6SM SCT050 BKN100
     FM240400 33004KT P6SM BKN040=



000
FTUS41 KCTP 230556
TAFBFD
TAF
KBFD 230556Z 2306/2406 22004KT P6SM SCT040
     FM231500 25008KT P6SM VCTS BKN040CB
     FM232000 31010KT P6SM BKN025
     FM240300 34005KT P6SM BKN015=



000
FTUS41 KCTP 230556
TAFIPT
TAF
KIPT 230556Z 2306/2406 VRB03KT P6SM SCT050
     FM230900 VRB04KT 6SM HZ SCT050
     FM231900 24007KT P6SM VCTS BKN050CB
     FM240000 31005KT P6SM SCT050 BKN100
     FM240500 29004KT P6SM BKN040=



000
FTUS41 KCTP 230556
TAFMDT
TAF
KMDT 230556Z 2306/2406 21005KT P6SM FEW100
     FM230900 18004KT 6SM HZ SCT100
     FM231500 23007KT P6SM SCT050
     FM232000 27008KT P6SM VCTS BKN050CB=



000
FTUS41 KCTP 230556
TAFUNV
TAF
KUNV 230556Z 2306/2406 22004KT P6SM SCT050
     FM231800 25008KT P6SM VCTS BKN050CB
     FM232300 29008KT P6SM SCT050 BKN100
     FM240500 35004KT P6SM BKN040=



000
FTUS41 KCTP 230556
TAFAOO
TAF
KAOO 230556Z 2306/2406 22004KT P6SM SCT050
     FM231700 25008KT P6SM VCTS BKN050CB
     FM232200 28008KT P6SM SCT050 BKN100
     FM240400 33004KT P6SM BKN040=



000
FTUS41 KCTP 230556
TAFMDT
TAF
KMDT 230556Z 2306/2406 21005KT P6SM FEW100
     FM230900 18004KT 6SM HZ SCT100
     FM231500 23007KT P6SM SCT050
     FM232000 27008KT P6SM VCTS BKN050CB=



000
FTUS41 KCTP 230556
TAFJST
TAF
KJST 230556Z 2306/2406 23005KT P6SM SCT040
     FM231700 26010KT P6SM VCTS BKN040CB
     FM232200 29010KT P6SM BKN025
     FM240400 32005KT P6SM BKN015=



000
FTUS41 KCTP 230556
TAFUNV
TAF
KUNV 230556Z 2306/2406 22004KT P6SM SCT050
     FM231800 25008KT P6SM VCTS BKN050CB
     FM232300 29008KT P6SM SCT050 BKN100
     FM240500 35004KT P6SM BKN040=



000
FTUS41 KCTP 230556
TAFIPT
TAF
KIPT 230556Z 2306/2406 VRB03KT P6SM SCT050
     FM230900 VRB04KT 6SM HZ SCT050
     FM231900 24007KT P6SM VCTS BKN050CB
     FM240000 31005KT P6SM SCT050 BKN100
     FM240500 29004KT P6SM BKN040=



000
FTUS41 KCTP 230556
TAFBFD
TAF
KBFD 230556Z 2306/2406 22004KT P6SM SCT040
     FM231500 25008KT P6SM VCTS BKN040CB
     FM232000 31010KT P6SM BKN025
     FM240300 34005KT P6SM BKN015=



000
FTUS41 KCTP 230312 AAA
TAFMDT
TAF AMD
KMDT 230312Z 2303/2324 19007KT P6SM SKC
     FM230700 18003KT 4SM BR SKC
     FM231500 22006KT 6SM HZ BKN060
     FM231900 25008KT P6SM VCSH BKN050=



000
FTUS41 KCTP 230312 AAA
TAFMDT
TAF AMD
KMDT 230312Z 2303/2324 19007KT P6SM SKC
     FM230700 18003KT 4SM BR SKC
     FM231500 22006KT 6SM HZ BKN060
     FM231900 25008KT P6SM VCSH BKN050=



000
FTUS41 KCTP 230312 AAA
TAFIPT
TAF AMD
KIPT 230312Z 2303/2324 VRB03KT P6SM SCT050
     FM230900 09003KT 4SM BR BKN250
     FM231500 25005KT P6SM BKN050
     FM231900 24005KT P6SM VCSH BKN050=



000
FTUS41 KCTP 230312 AAA
TAFIPT
TAF AMD
KIPT 230312Z 2303/2324 VRB03KT P6SM SCT050
     FM230900 09003KT 4SM BR BKN250
     FM231500 25005KT P6SM BKN050
     FM231900 24005KT P6SM VCSH BKN050=



000
FTUS41 KCTP 230311 AAA
TAFUNV
TAF AMD
KUNV 230311Z 2303/2324 22003KT P6SM SKC
     FM230700 VRB03KT 4SM BR SKC
     FM231400 24004KT P6SM SCT050
     FM231600 27008KT P6SM VCSH BKN050=



000
FTUS41 KCTP 230311 AAA
TAFUNV
TAF AMD
KUNV 230311Z 2303/2324 22003KT P6SM SKC
     FM230700 VRB03KT 4SM BR SKC
     FM231400 24004KT P6SM SCT050
     FM231600 27008KT P6SM VCSH BKN050=



000
FTUS41 KCTP 230311 AAA
TAFAOO
TAF AMD
KAOO 230311Z 2303/2324 19005KT P6SM SKC
     FM230700 VRB03KT 4SM BR SKC
     FM231400 24004KT P6SM SCT050
     FM231600 27008KT P6SM VCSH BKN050=



000
FTUS41 KCTP 230310 AAA
TAFJST
TAF AMD
KJST 230310Z 2303/2324 17005KT P6SM SKC
     FM231400 24006KT P6SM VCSH BKN040
     FM231600 27010KT P6SM VCTS BKN035CB=



000
FTUS41 KCTP 230310 AAA
TAFJST
TAF AMD
KJST 230310Z 2303/2324 17005KT P6SM SKC
     FM231400 24006KT P6SM VCSH BKN040
     FM231600 27010KT P6SM VCTS BKN035CB=



000
FTUS41 KCTP 230309 AAA
TAFBFD
TAF AMD
KBFD 230309Z 2303/2324 VRB03KT P6SM SKC
     FM230500 VRB03KT 4SM BR SKC
     FM230800 VRB03KT 1/2SM FG OVC004
     FM231300 24006KT 5SM HZ OVC025
     FM231500 27007KT P6SM VCSH BKN050=



000
FTUS41 KCTP 230309 AAA
TAFBFD
TAF AMD
KBFD 230309Z 2303/2324 VRB03KT P6SM SKC
     FM230500 VRB03KT 4SM BR SKC
     FM230800 VRB03KT 1/2SM FG OVC004
     FM231300 24006KT 5SM HZ OVC025
     FM231500 27007KT P6SM VCSH BKN050=



000
FTUS41 KCTP 222338
TAFMDT
TAF
KMDT 222338Z 2300/2324 21007KT P6SM SKC
     FM230700 18003KT 4SM BR SKC
     FM231500 22006KT 6SM HZ BKN060
     FM231900 25008KT P6SM VCSH BKN050=



000
FTUS41 KCTP 222338
TAFJST
TAF
KJST 222338Z 2300/2324 14004KT P6SM VCSH BKN050
     FM230300 20004KT P6SM SCT035
     FM231400 24006KT P6SM VCSH BKN040
     FM231600 27010KT P6SM VCTS BKN035CB=



000
FTUS41 KCTP 222338
TAFIPT
TAF
KIPT 222338Z 2300/2324 17008KT P6SM SKC
     FM230900 09003KT 4SM BR BKN250
     FM231500 25005KT P6SM BKN050
     FM231900 24005KT P6SM VCSH BKN050=



000
FTUS41 KCTP 222338
TAFAOO
TAF
KAOO 222338Z 2300/2324 19005KT P6SM VCSH BKN050
     FM230200 20004KT P6SM SKC
     FM230700 VRB03KT 4SM BR SKC
     FM231400 24004KT P6SM SCT050
     FM231600 27008KT P6SM VCSH BKN050=



000
FTUS41 KCTP 222338
TAFBFD
TAF
KBFD 222338Z 2300/2324 23004KT P6SM SKC
     FM230500 VRB03KT 4SM BR SKC
     FM230800 VRB03KT 1/2SM FG OVC004
     FM231300 24006KT 5SM HZ OVC025
     FM231500 27007KT P6SM VCSH BKN050=



000
FTUS41 KCTP 222338
TAFUNV
TAF
KUNV 222338Z 2300/2324 20006KT P6SM SCT050
     FM230700 VRB03KT 4SM BR SKC
     FM231400 24004KT P6SM SCT050
     FM231600 27008KT P6SM VCSH BKN050=



000
FTUS41 KCTP 222338
TAFMDT
TAF
KMDT 222338Z 2300/2324 21007KT P6SM SKC
     FM230700 18003KT 4SM BR SKC
     FM231500 22006KT 6SM HZ BKN060
     FM231900 25008KT P6SM VCSH BKN050=



000
FTUS41 KCTP 222338
TAFJST
TAF
KJST 222338Z 2300/2324 14004KT P6SM VCSH BKN050
     FM230300 20004KT P6SM SCT035
     FM231400 24006KT P6SM VCSH BKN040
     FM231600 27010KT P6SM VCTS BKN035CB=



000
FTUS41 KCTP 222338
TAFBFD
TAF
KBFD 222338Z 2300/2324 23004KT P6SM SKC
     FM230500 VRB03KT 4SM BR SKC
     FM230800 VRB03KT 1/2SM FG OVC004
     FM231300 24006KT 5SM HZ OVC025
     FM231500 27007KT P6SM VCSH BKN050=



000
FTUS41 KCTP 222338
TAFIPT
TAF
KIPT 222338Z 2300/2324 17008KT P6SM SKC
     FM230900 09003KT 4SM BR BKN250
     FM231500 25005KT P6SM BKN050
     FM231900 24005KT P6SM VCSH BKN050=



000
FTUS41 KCTP 222338
TAFUNV
TAF
KUNV 222338Z 2300/2324 20006KT P6SM SCT050
     FM230700 VRB03KT 4SM BR SKC
     FM231400 24004KT P6SM SCT050
     FM231600 27008KT P6SM VCSH BKN050=



000
FTUS41 KCTP 222338
TAFAOO
TAF
KAOO 222338Z 2300/2324 19005KT P6SM VCSH BKN050
     FM230200 20004KT P6SM SKC
     FM230700 VRB03KT 4SM BR SKC
     FM231400 24004KT P6SM SCT050
     FM231600 27008KT P6SM VCSH BKN050=



000
FTUS41 KCTP 222126 AAA
TAFMDT
TAF AMD
KMDT 222126Z 2221/2318 20007KT P6SM SCT050
     FM230700 18003KT 4SM BR SKC
     FM231500 26005KT 6SM HZ SKC=



000
FTUS41 KCTP 222126 AAA
TAFMDT
TAF AMD
KMDT 222126Z 2221/2318 20007KT P6SM SCT050
     FM230700 18003KT 4SM BR SKC
     FM231500 26005KT 6SM HZ SKC=



000
FTUS41 KCTP 222126 AAA
TAFIPT
TAF AMD
KIPT 222126Z 2221/2318 16005KT P6SM SCT025 BKN060
     FM230900 09002KT 4SM BR BKN250
     FM231500 25005KT 6SM HZ BKN250=



000
FTUS41 KCTP 222126 AAA
TAFIPT
TAF AMD
KIPT 222126Z 2221/2318 16005KT P6SM SCT025 BKN060
     FM230900 09002KT 4SM BR BKN250
     FM231500 25005KT 6SM HZ BKN250=



000
FTUS41 KCTP 222125 AAA
TAFAOO
TAF AMD
KAOO 222125Z 2221/2318 19005KT P6SM SCT025 BKN050
     FM230700 VRB03KT 4SM BR SKC
     FM231600 27008KT 6SM HZ BKN250=



000
FTUS41 KCTP 222125 AAA
TAFAOO
TAF AMD
KAOO 222125Z 2221/2318 19005KT P6SM SCT025 BKN050
     FM230700 VRB03KT 4SM BR SKC
     FM231600 27008KT 6SM HZ BKN250=



000
FTUS41 KCTP 222125 AAA
TAFJST
TAF AMD
KJST 222125Z 2221/2318 17009KT P6SM SCT040 BKN080
     FM230300 20004KT P6SM SCT035=



000
FTUS41 KCTP 222125 AAA
TAFJST
TAF AMD
KJST 222125Z 2221/2318 17009KT P6SM SCT040 BKN080
     FM230300 20004KT P6SM SCT035=



000
FTUS41 KCTP 222125 AAA
TAFUNV
TAF AMD
KUNV 222125Z 2221/2318 20006KT P6SM SCT035 BKN080
     FM230700 VRB02KT 4SM BR SKC
     FM231600 27008KT 6SM HZ BKN250=



000
FTUS41 KCTP 222125 AAA
TAFUNV
TAF AMD
KUNV 222125Z 2221/2318 20006KT P6SM SCT035 BKN080
     FM230700 VRB02KT 4SM BR SKC
     FM231600 27008KT 6SM HZ BKN250=



000
FTUS41 KCTP 222123 AAA
TAFBFD
TAF AMD
KBFD 222123Z 2221/2318 21006KT P6SM SCT040
     FM230300 VRB03KT 4SM BR SKC
     FM230600 VRB03KT 2SM BR BKN004
     FM231500 29007KT 6SM HZ OVC050=



000
FTUS41 KCTP 221720
TAFUNV
TAF
KUNV 221720Z 2218/2318 23006KT P6SM SCT025 BKN050
     FM230700 VRB02KT 4SM BR SKC
     FM231600 27008KT 6SM HZ BKN250=



000
FTUS41 KCTP 221720
TAFJST
TAF
KJST 221720Z 2218/2318 19005KT P6SM SCT040 BKN080
     FM230300 20004KT P6SM SCT035=



000
FTUS41 KCTP 221720
TAFMDT
TAF
KMDT 221720Z 2218/2318 22007KT P6SM SCT025 BKN080
     FM230700 18003KT 4SM BR SKC
     FM231500 26005KT 6SM HZ SKC=



000
FTUS41 KCTP 221720
TAFAOO
TAF
KAOO 221720Z 2218/2318 19005KT P6SM SCT025 BKN050
     FM230700 VRB03KT 4SM BR SKC
     FM231600 27008KT 6SM HZ BKN250=



000
FTUS41 KCTP 221720
TAFBFD
TAF
KBFD 221720Z 2218/2318 18006KT P6SM BKN035
     FM230300 VRB03KT 4SM BR SKC
     FM230600 VRB03KT 2SM BR BKN004
     FM231500 29007KT 6SM HZ OVC050=



000
FTUS41 KCTP 221720
TAFIPT
TAF
KIPT 221720Z 2218/2318 15005KT P6SM SCT025 BKN050
     FM230900 09002KT 4SM BR BKN250
     FM231500 25005KT 6SM HZ BKN250=



000
FTUS41 KCTP 221521 AAC
TAFAOO
TAF AMD
KAOO 221521Z 2215/2312 19005KT P6SM SCT015
     FM221700 20005KT P6SM SCT025 BKN050
     FM230300 20004KT P6SM SCT040=



000
FTUS41 KCTP 221521 AAA
TAFUNV
TAF AMD
KUNV 221521Z 2215/2312 23006KT P6SM BKN020
     FM221700 20005KT P6SM SCT025 BKN050
     FM230300 21004KT P6SM SCT040=



000
FTUS41 KCTP 221521 AAA
TAFUNV
TAF AMD
KUNV 221521Z 2215/2312 23006KT P6SM BKN020
     FM221700 20005KT P6SM SCT025 BKN050
     FM230300 21004KT P6SM SCT040=



000
FTUS41 KCTP 221521 AAA
TAFJST
TAF AMD
KJST 221521Z 2215/2312 19005KT P6SM SCT040
     FM230300 20004KT P6SM SCT035=



000
FTUS41 KCTP 221521 AAC
TAFAOO
TAF AMD
KAOO 221521Z 2215/2312 19005KT P6SM SCT015
     FM221700 20005KT P6SM SCT025 BKN050
     FM230300 20004KT P6SM SCT040=



000
FTUS41 KCTP 221521 AAC
TAFBFD
TAF AMD
KBFD 221521Z 2215/2312 18006KT P6SM BKN025
     FM221700 20004KT P6SM SCT015
     FM230300 VRB03KT 4SM BR SKC
     FM230600 00000KT 2SM BR SKC=



000
FTUS41 KCTP 221521 AAC
TAFBFD
TAF AMD
KBFD 221521Z 2215/2312 18006KT P6SM BKN025
     FM221700 20004KT P6SM SCT015
     FM230300 VRB03KT 4SM BR SKC
     FM230600 00000KT 2SM BR SKC=



000
FTUS41 KCTP 221521 AAA
TAFIPT
TAF AMD
KIPT 221521Z 2215/2312 VRB02KT P6SM BKN020
     FM221700 15005KT P6SM SCT025 BKN050
     FM230300 VRB03KT P6SM SCT050=



000
FTUS41 KCTP 221521 AAA
TAFIPT
TAF AMD
KIPT 221521Z 2215/2312 VRB02KT P6SM BKN020
     FM221700 15005KT P6SM SCT025 BKN050
     FM230300 VRB03KT P6SM SCT050=



000
FTUS41 KCTP 221521 AAA
TAFMDT
TAF AMD
KMDT 221521Z 2215/2312 VRB03KT P6SM SCT020 BKN080
     FM230300 18004KT P6SM SCT050=



000
FTUS41 KCTP 221521 AAA
TAFMDT
TAF AMD
KMDT 221521Z 2215/2312 VRB03KT P6SM SCT020 BKN080
     FM230300 18004KT P6SM SCT050=



000
FTUS41 KCTP 221521 AAA
TAFJST
TAF AMD
KJST 221521Z 2215/2312 19005KT P6SM SCT040
     FM230300 20004KT P6SM SCT035=



000
FTUS41 KCTP 221420 AAB
TAFAOO
TAF AMD
KAOO 221420Z 2214/2312 19005KT P6SM SCT015
     FM221700 20005KT P6SM SCT025 BKN050
     FM230300 20004KT P6SM SCT040=



000
FTUS41 KCTP 221420 AAB
TAFAOO
TAF AMD
KAOO 221420Z 2214/2312 19005KT P6SM SCT015
     FM221700 20005KT P6SM SCT025 BKN050
     FM230300 20004KT P6SM SCT040=



000
FTUS41 KCTP 221400 AAB
TAFBFD
TAF AMD
KBFD 221400Z 2214/2312 18004KT P6SM BKN010
     FM221430 20004KT P6SM SCT015
     FM230300 VRB03KT 4SM BR SKC
     FM230600 00000KT 2SM BR SKC=



000
FTUS41 KCTP 221338 AAA
TAFAOO
TAF AMD
KAOO 221338Z 2214/2312 VRB03KT P6SM BKN009
     FM221430 19005KT P6SM BKN025
     FM221700 20005KT P6SM SCT025 BKN050
     FM230300 20004KT P6SM SCT040=



000
FTUS41 KCTP 221338 AAA
TAFAOO
TAF AMD
KAOO 221338Z 2214/2312 VRB03KT P6SM BKN009
     FM221430 19005KT P6SM BKN025
     FM221700 20005KT P6SM SCT025 BKN050
     FM230300 20004KT P6SM SCT040=



000
FTUS41 KCTP 221245 AAA
TAFBFD
TAF AMD
KBFD 221245Z 2213/2312 VRB03KT 2SM BR OVC002
     FM221330 18004KT P6SM SCT025
     FM221700 23005KT P6SM BKN050
     FM230300 VRB03KT 4SM BR SKC
     FM230600 00000KT 2SM BR SKC=



000
FTUS41 KCTP 221245 AAA
TAFBFD
TAF AMD
KBFD 221245Z 2213/2312 VRB03KT 2SM BR OVC002
     FM221330 18004KT P6SM SCT025
     FM221700 23005KT P6SM BKN050
     FM230300 VRB03KT 4SM BR SKC
     FM230600 00000KT 2SM BR SKC=



000
FTUS41 KCTP 221122
TAFBFD
TAF
KBFD 221122Z 2212/2312 00000KT 1/4SM FG VV001
     FM221300 18004KT P6SM SCT025
     FM221700 23005KT P6SM BKN050
     FM230300 VRB03KT 4SM BR SKC
     FM230600 00000KT 2SM BR SKC=



000
FTUS41 KCTP 221122
TAFUNV
TAF
KUNV 221122Z 2212/2312 00000KT 5SM BR OVC020
     FM221600 20005KT P6SM SCT025 BKN050
     FM230300 21004KT P6SM SCT040=



000
FTUS41 KCTP 221122
TAFAOO
TAF
KAOO 221122Z 2212/2312 00000KT 3SM BR OVC010
     FM221300 19005KT P6SM BKN025
     FM221700 20005KT P6SM SCT025 BKN050
     FM230300 20004KT P6SM SCT040=



000
FTUS41 KCTP 221122
TAFMDT
TAF
KMDT 221122Z 2212/2312 VRB03KT P6SM OVC020
     FM221500 17005KT P6SM SCT025 BKN050
     FM230300 18004KT P6SM SCT050=



000
FTUS41 KCTP 221122
TAFIPT
TAF
KIPT 221122Z 2212/2312 VRB02KT 6SM BR OVC020
     FM221500 15005KT P6SM SCT025 BKN050
     FM230300 VRB03KT P6SM SCT050=



000
FTUS41 KCTP 221122
TAFJST
TAF
KJST 221122Z 2212/2312 19005KT P6SM SCT020
     FM221700 19005KT P6SM BKN040
     FM230300 20004KT P6SM SCT035=



000
FTUS41 KCTP 221122
TAFUNV
TAF
KUNV 221122Z 2212/2312 00000KT 5SM BR OVC020
     FM221600 20005KT P6SM SCT025 BKN050
     FM230300 21004KT P6SM SCT040=



000
FTUS41 KCTP 221122
TAFBFD
TAF
KBFD 221122Z 2212/2312 00000KT 1/4SM FG VV001
     FM221300 18004KT P6SM SCT025
     FM221700 23005KT P6SM BKN050
     FM230300 VRB03KT 4SM BR SKC
     FM230600 00000KT 2SM BR SKC=



000
FTUS41 KCTP 221122
TAFMDT
TAF
KMDT 221122Z 2212/2312 VRB03KT P6SM OVC020
     FM221500 17005KT P6SM SCT025 BKN050
     FM230300 18004KT P6SM SCT050=



000
FTUS41 KCTP 221122
TAFIPT
TAF
KIPT 221122Z 2212/2312 VRB02KT 6SM BR OVC020
     FM221500 15005KT P6SM SCT025 BKN050
     FM230300 VRB03KT P6SM SCT050=



000
FTUS41 KCTP 221122
TAFAOO
TAF
KAOO 221122Z 2212/2312 00000KT 3SM BR OVC010
     FM221300 19005KT P6SM BKN025
     FM221700 20005KT P6SM SCT025 BKN050
     FM230300 20004KT P6SM SCT040=



000
FTUS41 KCTP 221122
TAFJST
TAF
KJST 221122Z 2212/2312 19005KT P6SM SCT020
     FM221700 19005KT P6SM BKN040
     FM230300 20004KT P6SM SCT035=



000
FTUS41 KCTP 220938 AAD
TAFBFD
TAF AMD
KBFD 220938Z 2210/2306 00000KT 1/4SM FG VV002
     FM221200 18004KT P6SM SCT025
     FM221700 23005KT P6SM BKN050
     FM230300 00000KT 5SM BR SCT025=



000
FTUS41 KCTP 220938 AAB
TAFJST
TAF AMD
KJST 220938Z 2210/2306 19005KT 6SM BR SCT010
     FM221300 19005KT P6SM SCT020
     FM221700 19005KT P6SM BKN040
     FM230300 20004KT P6SM SCT035=



000
FTUS41 KCTP 220938 AAD
TAFBFD
TAF AMD
KBFD 220938Z 2210/2306 00000KT 1/4SM FG VV002
     FM221200 18004KT P6SM SCT025
     FM221700 23005KT P6SM BKN050
     FM230300 00000KT 5SM BR SCT025=



000
FTUS41 KCTP 220938 AAB
TAFUNV
TAF AMD
KUNV 220938Z 2210/2306 00000KT 6SM BR OVC015
     FM221500 20005KT P6SM SCT025
     FM221800 20005KT P6SM BKN050
     FM230300 21004KT P6SM SCT040=



000
FTUS41 KCTP 220938 AAB
TAFIPT
TAF AMD
KIPT 220938Z 2210/2306 VRB02KT 6SM BR SCT004 BKN020
     FM221500 15005KT P6SM SCT025 BKN050
     FM230300 VRB03KT P6SM SCT050=



000
FTUS41 KCTP 220938 AAB
TAFMDT
TAF AMD
KMDT 220938Z 2210/2306 VRB03KT P6SM SCT015 BKN050
     FM221500 17005KT P6SM BKN050
     FM230300 18004KT P6SM SCT050=



000
FTUS41 KCTP 220938 AAB
TAFMDT
TAF AMD
KMDT 220938Z 2210/2306 VRB03KT P6SM SCT015 BKN050
     FM221500 17005KT P6SM BKN050
     FM230300 18004KT P6SM SCT050=



000
FTUS41 KCTP 220938 AAB
TAFUNV
TAF AMD
KUNV 220938Z 2210/2306 00000KT 6SM BR OVC015
     FM221500 20005KT P6SM SCT025
     FM221800 20005KT P6SM BKN050
     FM230300 21004KT P6SM SCT040=



000
FTUS41 KCTP 220938 AAB
TAFAOO
TAF AMD
KAOO 220938Z 2210/2306 00000KT 2SM BR SCT010
     FM221300 19005KT P6SM SCT025
     FM221700 20005KT P6SM BKN050
     FM230300 20004KT P6SM SCT040=



000
FTUS41 KCTP 220938 AAB
TAFAOO
TAF AMD
KAOO 220938Z 2210/2306 00000KT 2SM BR SCT010
     FM221300 19005KT P6SM SCT025
     FM221700 20005KT P6SM BKN050
     FM230300 20004KT P6SM SCT040=



000
FTUS41 KCTP 220938 AAB
TAFJST
TAF AMD
KJST 220938Z 2210/2306 19005KT 6SM BR SCT010
     FM221300 19005KT P6SM SCT020
     FM221700 19005KT P6SM BKN040
     FM230300 20004KT P6SM SCT035=



000
FTUS41 KCTP 220938 AAB
TAFIPT
TAF AMD
KIPT 220938Z 2210/2306 VRB02KT 6SM BR SCT004 BKN020
     FM221500 15005KT P6SM SCT025 BKN050
     FM230300 VRB03KT P6SM SCT050=



000
FTUS41 KCTP 220834 AAC
TAFBFD
TAF AMD
KBFD 220834Z 2209/2306 00000KT 1/4SM FG VV002
     FM221200 18004KT P6SM SCT025
     FM221700 23005KT P6SM BKN050
     FM230300 00000KT 5SM BR SCT025=



000
FTUS41 KCTP 220602 RRA
TAFMDT
TAF
KMDT 220602Z 2206/2306 VRB03KT P6SM BKN040
     FM220900 VRB03KT 5SM BR SCT010 BKN020
     FM221500 17005KT P6SM SCT025 BKN050
     FM230300 18004KT P6SM SCT050=



000
FTUS41 KCTP 220602 RRA
TAFIPT
TAF
KIPT 220602Z 2206/2306 00000KT P6SM BKN040
     FM220800 VRB02KT 3SM BR BKN020
     FM221500 15005KT P6SM SCT025 BKN050
     FM230300 VRB03KT P6SM SCT050=



000
FTUS41 KCTP 220602 RRA
TAFUNV
TAF
KUNV 220602Z 2206/2306 00000KT 5SM BR BKN015
     FM221500 20005KT P6SM SCT025
     FM221800 20005KT P6SM BKN050
     FM230300 21004KT P6SM SCT040=



000
FTUS41 KCTP 220602 RRA
TAFBFD
TAF
KBFD 220602Z 2206/2306 00000KT 4SM BR BKN010
     FM221200 18004KT P6SM SCT025
     FM221700 23005KT P6SM BKN050
     FM230300 00000KT 5SM BR SCT025=



000
FTUS41 KCTP 220602 RRA
TAFJST
TAF
KJST 220602Z 2206/2306 19005KT 6SM BR SCT010
     FM221300 19005KT P6SM SCT020
     FM221700 19005KT P6SM BKN040
     FM230300 20004KT P6SM SCT035=



000
FTUS41 KCTP 220602 RRA
TAFAOO
TAF
KAOO 220602Z 2206/2306 00000KT 5SM BR BKN015
     FM221300 19005KT P6SM SCT025
     FM221700 20005KT P6SM BKN050
     FM230300 20004KT P6SM SCT040=



000
FTUS41 KCTP 220602 RRA
TAFIPT
TAF
KIPT 220602Z 2206/2306 00000KT P6SM BKN040
     FM220800 VRB02KT 3SM BR BKN020
     FM221500 15005KT P6SM SCT025 BKN050
     FM230300 VRB03KT P6SM SCT050=



000
FTUS41 KCTP 220602 RRA
TAFJST
TAF
KJST 220602Z 2206/2306 19005KT 6SM BR SCT010
     FM221300 19005KT P6SM SCT020
     FM221700 19005KT P6SM BKN040
     FM230300 20004KT P6SM SCT035=



000
FTUS41 KCTP 220602 RRA
TAFUNV
TAF
KUNV 220602Z 2206/2306 00000KT 5SM BR BKN015
     FM221500 20005KT P6SM SCT025
     FM221800 20005KT P6SM BKN050
     FM230300 21004KT P6SM SCT040=



000
FTUS41 KCTP 220602 RRA
TAFMDT
TAF
KMDT 220602Z 2206/2306 VRB03KT P6SM BKN040
     FM220900 VRB03KT 5SM BR SCT010 BKN020
     FM221500 17005KT P6SM SCT025 BKN050
     FM230300 18004KT P6SM SCT050=



000
FTUS41 KCTP 220602 RRA
TAFAOO
TAF
KAOO 220602Z 2206/2306 00000KT 5SM BR BKN015
     FM221300 19005KT P6SM SCT025
     FM221700 20005KT P6SM BKN050
     FM230300 20004KT P6SM SCT040=



000
FTUS41 KCTP 220602 RRA
TAFBFD
TAF
KBFD 220602Z 2206/2306 00000KT 4SM BR BKN010
     FM221200 18004KT P6SM SCT025
     FM221700 23005KT P6SM BKN050
     FM230300 00000KT 5SM BR SCT025=



000
FTUS41 KCTP 220328 AAB
TAFBFD
TAF AMD
KBFD 220328Z 2203/2224 17006KT P6SM VCSH BKN025
     FM220500 VRB03KT 4SM BR SCT020
     FM220900 00000KT 1/2SM FG BKN001
     FM221200 21006KT P6SM SCT030=



000
FTUS41 KCTP 220328 AAA
TAFAOO
TAF AMD
KAOO 220328Z 2203/2224 19005KT P6SM SKC
     FM220700 VRB03KT 4SM BR SKC
     FM221300 18006KT P6SM BKN035=



000
FTUS41 KCTP 220328 AAA
TAFMDT
TAF AMD
KMDT 220328Z 2203/2224 12005KT P6SM SKC
     FM220800 VRB03KT 4SM BR BKN025
     FM221500 19006KT P6SM BKN035=



000
FTUS41 KCTP 220328 AAA
TAFIPT
TAF AMD
KIPT 220328Z 2203/2224 VRB05KT P6SM SKC
     FM220700 VRB04KT 4SM BR BKN015
     FM221500 19006KT P6SM BKN035=



000
FTUS41 KCTP 220328 AAA
TAFMDT
TAF AMD
KMDT 220328Z 2203/2224 12005KT P6SM SKC
     FM220800 VRB03KT 4SM BR BKN025
     FM221500 19006KT P6SM BKN035=



000
FTUS41 KCTP 220328 AAA
TAFUNV
TAF AMD
KUNV 220328Z 2203/2224 16005KT P6SM SKC
     FM220800 VRB03KT 4SM BR SKC
     FM221300 19006KT P6SM BKN035=



000
FTUS41 KCTP 220328 AAA
TAFAOO
TAF AMD
KAOO 220328Z 2203/2224 19005KT P6SM SKC
     FM220700 VRB03KT 4SM BR SKC
     FM221300 18006KT P6SM BKN035=



000
FTUS41 KCTP 220328 AAA
TAFJST
TAF AMD
KJST 220328Z 2203/2224 15008KT P6SM SKC
     FM220700 VRB04KT 4SM BR SKC
     FM221200 20006KT P6SM SCT030=



000
FTUS41 KCTP 220328 AAA
TAFUNV
TAF AMD
KUNV 220328Z 2203/2224 16005KT P6SM SKC
     FM220800 VRB03KT 4SM BR SKC
     FM221300 19006KT P6SM BKN035=



000
FTUS41 KCTP 220328 AAB
TAFBFD
TAF AMD
KBFD 220328Z 2203/2224 17006KT P6SM VCSH BKN025
     FM220500 VRB03KT 4SM BR SCT020
     FM220900 00000KT 1/2SM FG BKN001
     FM221200 21006KT P6SM SCT030=



000
FTUS41 KCTP 220328 AAA
TAFJST
TAF AMD
KJST 220328Z 2203/2224 15008KT P6SM SKC
     FM220700 VRB04KT 4SM BR SKC
     FM221200 20006KT P6SM SCT030=



000
FTUS41 KCTP 220328 AAA
TAFIPT
TAF AMD
KIPT 220328Z 2203/2224 VRB05KT P6SM SKC
     FM220700 VRB04KT 4SM BR BKN015
     FM221500 19006KT P6SM BKN035=



000
FTUS41 KCTP 220204 AAA
TAFBFD
TAF AMD
KBFD 220204Z 2202/2224 17006KT P6SM VCSH BKN030
     FM220400 VRB03KT 4SM BR SCT030
     FM220900 00000KT 1/2SM FG BKN001
     FM221200 21006KT P6SM SCT030=



000
FTUS41 KCTP 220204 AAA
TAFBFD
TAF AMD
KBFD 220204Z 2202/2224 17006KT P6SM VCSH BKN030
     FM220400 VRB03KT 4SM BR SCT030
     FM220900 00000KT 1/2SM FG BKN001
     FM221200 21006KT P6SM SCT030=



000
FTUS41 KCTP 212334
TAFJST
TAF
KJST 212334Z 2200/2224 10006KT P6SM VCSH BKN035
     FM220500 VRB04KT 5SM BR SCT030
     FM221200 20006KT P6SM SCT030=



000
FTUS41 KCTP 212334
TAFBFD
TAF
KBFD 212334Z 2200/2224 17006KT P6SM VCSH BKN035
     FM220300 VRB03KT 4SM BR SCT030
     FM220900 00000KT 1/2SM FG BKN001
     FM221200 21006KT P6SM SCT030=



000
FTUS41 KCTP 212334
TAFAOO
TAF
KAOO 212334Z 2200/2224 14005KT P6SM SCT035
     FM220500 VRB03KT 4SM BR SCT030
     FM221300 18006KT P6SM BKN035=



000
FTUS41 KCTP 212334
TAFMDT
TAF
KMDT 212334Z 2200/2224 15005KT P6SM SCT040
     FM220800 VRB03KT 4SM BR BKN025
     FM221500 19006KT P6SM BKN035=



000
FTUS41 KCTP 212334
TAFIPT
TAF
KIPT 212334Z 2200/2224 16007KT P6SM SCT035
     FM220700 VRB04KT 4SM BR BKN015
     FM221500 19006KT P6SM BKN035=



000
FTUS41 KCTP 212334
TAFUNV
TAF
KUNV 212334Z 2200/2224 16005KT P6SM SCT035
     FM220700 VRB03KT 4SM BR SCT030
     FM221300 19006KT P6SM BKN035=



000
FTUS41 KCTP 212334
TAFAOO
TAF
KAOO 212334Z 2200/2224 14005KT P6SM SCT035
     FM220500 VRB03KT 4SM BR SCT030
     FM221300 18006KT P6SM BKN035=



000
FTUS41 KCTP 212334
TAFBFD
TAF
KBFD 212334Z 2200/2224 17006KT P6SM VCSH BKN035
     FM220300 VRB03KT 4SM BR SCT030
     FM220900 00000KT 1/2SM FG BKN001
     FM221200 21006KT P6SM SCT030=



000
FTUS41 KCTP 212334
TAFJST
TAF
KJST 212334Z 2200/2224 10006KT P6SM VCSH BKN035
     FM220500 VRB04KT 5SM BR SCT030
     FM221200 20006KT P6SM SCT030=



000
FTUS41 KCTP 212334
TAFIPT
TAF
KIPT 212334Z 2200/2224 16007KT P6SM SCT035
     FM220700 VRB04KT 4SM BR BKN015
     FM221500 19006KT P6SM BKN035=



000
FTUS41 KCTP 212334
TAFMDT
TAF
KMDT 212334Z 2200/2224 15005KT P6SM SCT040
     FM220800 VRB03KT 4SM BR BKN025
     FM221500 19006KT P6SM BKN035=



000
FTUS41 KCTP 212334
TAFUNV
TAF
KUNV 212334Z 2200/2224 16005KT P6SM SCT035
     FM220700 VRB03KT 4SM BR SCT030
     FM221300 19006KT P6SM BKN035=



000
FTUS41 KCTP 212158 AAB
TAFUNV
TAF AMD
KUNV 212158Z 2122/2218 15005KT P6SM BKN030
     FM220400 17002KT 4SM BR SCT025
     FM221500 19003KT 6SM HZ BKN050=



000
FTUS41 KCTP 212158 AAB
TAFUNV
TAF AMD
KUNV 212158Z 2122/2218 15005KT P6SM BKN030
     FM220400 17002KT 4SM BR SCT025
     FM221500 19003KT 6SM HZ BKN050=



000
FTUS41 KCTP 212129 AAB
TAFIPT
TAF AMD
KIPT 212129Z 2121/2218 17007KT P6SM VCSH SCT025 BKN035
     FM220100 VRB03KT P6SM SCT060
     FM220700 00000KT 4SM BR OVC015
     FM221500 16003KT P6SM BKN250=



000
FTUS41 KCTP 212129 AAA
TAFUNV
TAF AMD
KUNV 212129Z 2121/2218 15005KT P6SM SCT025 BKN035
     FM220400 17002KT 4SM BR SCT050
     FM221500 19003KT 6SM HZ BKN050=



000
FTUS41 KCTP 212129 AAB
TAFIPT
TAF AMD
KIPT 212129Z 2121/2218 17007KT P6SM VCSH SCT025 BKN035
     FM220100 VRB03KT P6SM SCT060
     FM220700 00000KT 4SM BR OVC015
     FM221500 16003KT P6SM BKN250=



000
FTUS41 KCTP 212129 AAC
TAFJST
TAF AMD
KJST 212129Z 2121/2218 13007KT P6SM VCSH BKN030
      TEMPO 2121/2123 1SM +SHRA BR
     FM220600 18003KT 4SM BR SCT250
     FM221500 19004KT 6SM HZ BKN250=



000
FTUS41 KCTP 212129 AAA
TAFMDT
TAF AMD
KMDT 212129Z 2121/2218 15005KT P6SM SCT040 BKN060
     FM220700 14002KT 4SM BR BKN025
     FM221500 18004KT P6SM BKN050=



000
FTUS41 KCTP 212129 AAA
TAFMDT
TAF AMD
KMDT 212129Z 2121/2218 15005KT P6SM SCT040 BKN060
     FM220700 14002KT 4SM BR BKN025
     FM221500 18004KT P6SM BKN050=



000
FTUS41 KCTP 212129 AAA
TAFUNV
TAF AMD
KUNV 212129Z 2121/2218 15005KT P6SM SCT025 BKN035
     FM220400 17002KT 4SM BR SCT050
     FM221500 19003KT 6SM HZ BKN050=



000
FTUS41 KCTP 212129 AAC
TAFJST
TAF AMD
KJST 212129Z 2121/2218 13007KT P6SM VCSH BKN030
      TEMPO 2121/2123 1SM +SHRA BR
     FM220600 18003KT 4SM BR SCT250
     FM221500 19004KT 6SM HZ BKN250=



000
FTUS41 KCTP 212129 AAB
TAFBFD
TAF AMD
KBFD 212129Z 2121/2218 18006KT P6SM VCSH BKN035
     FM220300 VRB03KT 4SM BR SCT025
     FM220900 00000KT 1/2SM FG BKN001
     FM221500 23005KT P6SM SCT250=



000
FTUS41 KCTP 212129 AAB
TAFBFD
TAF AMD
KBFD 212129Z 2121/2218 18006KT P6SM VCSH BKN035
     FM220300 VRB03KT 4SM BR SCT025
     FM220900 00000KT 1/2SM FG BKN001
     FM221500 23005KT P6SM SCT250=



000
FTUS41 KCTP 212129 AAB
TAFAOO
TAF AMD
KAOO 212129Z 2121/2218 14005KT P6SM VCSH SCT025 BKN035
     FM220400 17002KT 4SM BR SCT050
     FM221500 19003KT 6SM HZ BKN050=



000
FTUS41 KCTP 212129 AAB
TAFAOO
TAF AMD
KAOO 212129Z 2121/2218 14005KT P6SM VCSH SCT025 BKN035
     FM220400 17002KT 4SM BR SCT050
     FM221500 19003KT 6SM HZ BKN050=



000
FTUS41 KCTP 212105 AAB
TAFJST
TAF AMD
KJST 212105Z 2121/2218 16005KT P6SM VCSH BKN030
      TEMPO 2121/2123 1SM +SHRA BR
     FM220600 18003KT 4SM BR SCT250
     FM221500 19004KT 6SM HZ BKN250=



000
FTUS41 KCTP 212105 AAB
TAFJST
TAF AMD
KJST 212105Z 2121/2218 16005KT P6SM VCSH BKN030
      TEMPO 2121/2123 1SM +SHRA BR
     FM220600 18003KT 4SM BR SCT250
     FM221500 19004KT 6SM HZ BKN250=



000
FTUS41 KCTP 212033 AAA
TAFJST
TAF AMD
KJST 212033Z 2121/2218 16005KT P6SM VCSH BKN030
     FM220600 18003KT 4SM BR SCT250
     FM221500 19004KT 6SM HZ BKN250=



000
FTUS41 KCTP 212033 AAA
TAFJST
TAF AMD
KJST 212033Z 2121/2218 16005KT P6SM VCSH BKN030
     FM220600 18003KT 4SM BR SCT250
     FM221500 19004KT 6SM HZ BKN250=



000
FTUS41 KCTP 212032 AAA
TAFBFD
TAF AMD
KBFD 212032Z 2121/2218 20006KT P6SM VCSH BKN030
     FM220300 VRB03KT 4SM BR SCT050
     FM220900 00000KT 1/2SM FG BKN001
     FM221500 23005KT P6SM SCT250=



000
FTUS41 KCTP 212032 AAA
TAFBFD
TAF AMD
KBFD 212032Z 2121/2218 20006KT P6SM VCSH BKN030
     FM220300 VRB03KT 4SM BR SCT050
     FM220900 00000KT 1/2SM FG BKN001
     FM221500 23005KT P6SM SCT250=



000
FTUS41 KCTP 211936 AAA
TAFIPT
TAF AMD
KIPT 211936Z 2120/2218 17007KT P6SM VCSH SCT025 BKN060
     FM220100 VRB03KT P6SM SCT060
     FM220700 00000KT 4SM BR OVC015
     FM221500 16003KT P6SM BKN250=



000
FTUS41 KCTP 211936 AAA
TAFIPT
TAF AMD
KIPT 211936Z 2120/2218 17007KT P6SM VCSH SCT025 BKN060
     FM220100 VRB03KT P6SM SCT060
     FM220700 00000KT 4SM BR OVC015
     FM221500 16003KT P6SM BKN250=



000
FTUS41 KCTP 211934 AAA
TAFAOO
TAF AMD
KAOO 211934Z 2120/2218 15005KT P6SM VCSH SCT025 BKN040
     FM212000 17004KT P6SM SCT025 BKN050
     FM220400 17002KT 4SM BR SCT050
     FM221500 19003KT 6SM HZ BKN050=



000
FTUS41 KCTP 211934 AAA
TAFAOO
TAF AMD
KAOO 211934Z 2120/2218 15005KT P6SM VCSH SCT025 BKN040
     FM212000 17004KT P6SM SCT025 BKN050
     FM220400 17002KT 4SM BR SCT050
     FM221500 19003KT 6SM HZ BKN050=



000
FTUS41 KCTP 211725
TAFBFD
TAF
KBFD 211725Z 2118/2218 20006KT P6SM SCT020 BKN050
     FM220300 VRB03KT 4SM BR SCT050
     FM220900 00000KT 1/2SM FG BKN001
     FM221500 23005KT P6SM SCT250=



000
FTUS41 KCTP 211725
TAFAOO
TAF
KAOO 211725Z 2118/2218 17005KT P6SM BKN025 BKN050
     FM212000 17004KT P6SM SCT025 BKN050
     FM220400 17002KT 4SM BR SCT050
     FM221500 19003KT 6SM HZ BKN050=



000
FTUS41 KCTP 211725
TAFJST
TAF
KJST 211725Z 2118/2218 16005KT P6SM BKN025 BKN050
     FM211900 18004KT P6SM SCT025 BKN050
     FM220600 18003KT 4SM BR SCT250
     FM221500 19004KT 6SM HZ BKN250=



000
FTUS41 KCTP 211725
TAFUNV
TAF
KUNV 211725Z 2118/2218 18004KT P6SM SCT025 BKN050
     FM220400 17002KT 4SM BR SCT050
     FM221500 19003KT 6SM HZ BKN050=



000
FTUS41 KCTP 211725
TAFIPT
TAF
KIPT 211725Z 2118/2218 13007KT P6SM SCT025 BKN050
     FM220700 00000KT 4SM BR OVC015
     FM221500 16003KT P6SM BKN250=



000
FTUS41 KCTP 211725
TAFMDT
TAF
KMDT 211725Z 2118/2218 15005KT P6SM SCT040 BKN050
     FM220700 14002KT 4SM BR BKN025
     FM221500 18004KT P6SM BKN050=



000
FTUS41 KCTP 211725
TAFJST
TAF
KJST 211725Z 2118/2218 16005KT P6SM BKN025 BKN050
     FM211900 18004KT P6SM SCT025 BKN050
     FM220600 18003KT 4SM BR SCT250
     FM221500 19004KT 6SM HZ BKN250=



000
FTUS41 KCTP 211725
TAFUNV
TAF
KUNV 211725Z 2118/2218 18004KT P6SM SCT025 BKN050
     FM220400 17002KT 4SM BR SCT050
     FM221500 19003KT 6SM HZ BKN050=



000
FTUS41 KCTP 211725
TAFMDT
TAF
KMDT 211725Z 2118/2218 15005KT P6SM SCT040 BKN050
     FM220700 14002KT 4SM BR BKN025
     FM221500 18004KT P6SM BKN050=



000
FTUS41 KCTP 211725
TAFAOO
TAF
KAOO 211725Z 2118/2218 17005KT P6SM BKN025 BKN050
     FM212000 17004KT P6SM SCT025 BKN050
     FM220400 17002KT 4SM BR SCT050
     FM221500 19003KT 6SM HZ BKN050=



000
FTUS41 KCTP 211725
TAFIPT
TAF
KIPT 211725Z 2118/2218 13007KT P6SM SCT025 BKN050
     FM220700 00000KT 4SM BR OVC015
     FM221500 16003KT P6SM BKN250=



000
FTUS41 KCTP 211725
TAFBFD
TAF
KBFD 211725Z 2118/2218 20006KT P6SM SCT020 BKN050
     FM220300 VRB03KT 4SM BR SCT050
     FM220900 00000KT 1/2SM FG BKN001
     FM221500 23005KT P6SM SCT250=



000
FTUS41 KCTP 211623 AAC
TAFAOO
TAF AMD
KAOO 211623Z 2116/2212 17005KT P6SM BKN015 BKN050
     FM211700 18005KT P6SM BKN025 BKN050
     FM211900 17004KT P6SM BKN050
     FM220000 00000KT P6SM SCT050=



000
FTUS41 KCTP 211623 AAC
TAFAOO
TAF AMD
KAOO 211623Z 2116/2212 17005KT P6SM BKN015 BKN050
     FM211700 18005KT P6SM BKN025 BKN050
     FM211900 17004KT P6SM BKN050
     FM220000 00000KT P6SM SCT050=



000
FTUS41 KCTP 211538 AAB
TAFIPT
TAF AMD
KIPT 211538Z 2116/2212 00000KT P6SM BKN015
     FM211700 13005KT P6SM SCT025 BKN050
     FM220000 VRB03KT P6SM SCT050=



000
FTUS41 KCTP 211538 AAB
TAFAOO
TAF AMD
KAOO 211538Z 2116/2212 17005KT P6SM SCT025 BKN050
     FM220000 00000KT P6SM SCT050=



000
FTUS41 KCTP 211538 AAB
TAFUNV
TAF AMD
KUNV 211538Z 2116/2212 00000KT P6SM BKN020
     FM211700 18004KT P6SM SCT025 BKN050
     FM220000 00000KT P6SM SCT050=



000
FTUS41 KCTP 211538 AAB
TAFJST
TAF AMD
KJST 211538Z 2116/2212 16005KT P6SM BKN015 BKN050
     FM211800 18004KT P6SM BKN050
     FM212000 16005KT P6SM BKN050=



000
FTUS41 KCTP 211538 AAC
TAFBFD
TAF AMD
KBFD 211538Z 2116/2212 18006KT P6SM BKN025 BKN050
     FM211700 36002KT P6SM SCT020 BKN050
     FM220000 00000KT 4SM BR SCT050=



000
FTUS41 KCTP 211538 AAB
TAFIPT
TAF AMD
KIPT 211538Z 2116/2212 00000KT P6SM BKN015
     FM211700 13005KT P6SM SCT025 BKN050
     FM220000 VRB03KT P6SM SCT050=



000
FTUS41 KCTP 211538 AAC
TAFBFD
TAF AMD
KBFD 211538Z 2116/2212 18006KT P6SM BKN025 BKN050
     FM211700 36002KT P6SM SCT020 BKN050
     FM220000 00000KT 4SM BR SCT050=



000
FTUS41 KCTP 211538 AAB
TAFAOO
TAF AMD
KAOO 211538Z 2116/2212 17005KT P6SM SCT025 BKN050
     FM220000 00000KT P6SM SCT050=



000
FTUS41 KCTP 211538 AAB
TAFUNV
TAF AMD
KUNV 211538Z 2116/2212 00000KT P6SM BKN020
     FM211700 18004KT P6SM SCT025 BKN050
     FM220000 00000KT P6SM SCT050=



000
FTUS41 KCTP 211538 AAB
TAFMDT
TAF AMD
KMDT 211538Z 2116/2212 13005KT P6SM SCT025 BKN050
     FM220000 15004KT P6SM SCT050=



000
FTUS41 KCTP 211538 AAB
TAFJST
TAF AMD
KJST 211538Z 2116/2212 16005KT P6SM BKN015 BKN050
     FM211800 18004KT P6SM BKN050
     FM212000 16005KT P6SM BKN050=



000
FTUS41 KCTP 211538 AAB
TAFMDT
TAF AMD
KMDT 211538Z 2116/2212 13005KT P6SM SCT025 BKN050
     FM220000 15004KT P6SM SCT050=



000
FTUS41 KCTP 211417 AAA
TAFIPT
TAF AMD
KIPT 211417Z 2114/2212 00000KT P6SM BKN015
     FM211700 13005KT P6SM SCT025 BKN050
     FM220000 VRB03KT P6SM SCT050=



000
FTUS41 KCTP 211417 AAA
TAFIPT
TAF AMD
KIPT 211417Z 2114/2212 00000KT P6SM BKN015
     FM211700 13005KT P6SM SCT025 BKN050
     FM220000 VRB03KT P6SM SCT050=



000
FTUS41 KCTP 211417 AAA
TAFMDT
TAF AMD
KMDT 211417Z 2114/2212 13005KT P6SM BKN015
     FM211700 13005KT P6SM SCT025 BKN050
     FM220000 15004KT P6SM SCT050=



000
FTUS41 KCTP 211417 AAA
TAFMDT
TAF AMD
KMDT 211417Z 2114/2212 13005KT P6SM BKN015
     FM211700 13005KT P6SM SCT025 BKN050
     FM220000 15004KT P6SM SCT050=



000
FTUS41 KCTP 211416 AAA
TAFAOO
TAF AMD
KAOO 211416Z 2114/2212 17004KT P6SM BKN015 BKN050
     FM211700 17005KT P6SM SCT025 BKN050
     FM220000 00000KT P6SM SCT050=



000
FTUS41 KCTP 211416 AAA
TAFUNV
TAF AMD
KUNV 211416Z 2114/2212 00000KT P6SM BKN020
     FM211700 18004KT P6SM SCT025 BKN050
     FM220000 00000KT P6SM SCT050=



000
FTUS41 KCTP 211416 AAA
TAFUNV
TAF AMD
KUNV 211416Z 2114/2212 00000KT P6SM BKN020
     FM211700 18004KT P6SM SCT025 BKN050
     FM220000 00000KT P6SM SCT050=



000
FTUS41 KCTP 211415 AAA
TAFJST
TAF AMD
KJST 211415Z 2114/2212 16005KT P6SM BKN020 BKN050
     FM211700 18004KT P6SM SCT025 BKN050
     FM220000 17005KT P6SM SCT050=



000
FTUS41 KCTP 211414 AAB
TAFBFD
TAF AMD
KBFD 211414Z 2114/2212 13003KT P6SM BKN015 BKN050
     FM211700 36002KT P6SM SCT020 BKN050
     FM220000 00000KT 4SM BR SCT050=



000
FTUS41 KCTP 211414 AAB
TAFBFD
TAF AMD
KBFD 211414Z 2114/2212 13003KT P6SM BKN015 BKN050
     FM211700 36002KT P6SM SCT020 BKN050
     FM220000 00000KT 4SM BR SCT050=



000
FTUS41 KCTP 211232 AAA
TAFBFD
TAF AMD
KBFD 211232Z 2113/2212 13003KT P6SM BKN050
     FM220000 00000KT 4SM BR SCT050=



000
FTUS41 KCTP 211232 AAA
TAFBFD
TAF AMD
KBFD 211232Z 2113/2212 13003KT P6SM BKN050
     FM220000 00000KT 4SM BR SCT050=



000
FTUS41 KCTP 211120
TAFIPT
TAF
KIPT 211120Z 2112/2212 00000KT P6SM BKN015
     FM211400 13005KT P6SM SCT025 BKN050
     FM220000 VRB03KT P6SM SCT050=



000
FTUS41 KCTP 211120
TAFBFD
TAF
KBFD 211120Z 2112/2212 13003KT 3SM BR BKN050
     FM211300 VRB03KT P6SM BKN050
     FM220000 00000KT 4SM BR SCT050=



000
FTUS41 KCTP 211120
TAFJST
TAF
KJST 211120Z 2112/2212 16005KT P6SM BKN050
     FM220000 17005KT P6SM SCT050=



000
FTUS41 KCTP 211120
TAFMDT
TAF
KMDT 211120Z 2112/2212 11005KT 6SM BR BKN015
     FM211300 13005KT P6SM SCT025 BKN050
     FM220000 15004KT P6SM SCT050=



000
FTUS41 KCTP 211120
TAFUNV
TAF
KUNV 211120Z 2112/2212 00000KT P6SM BKN020
     FM211400 16003KT P6SM SCT025 BKN050
     FM220000 00000KT P6SM SCT050=



000
FTUS41 KCTP 211120
TAFJST
TAF
KJST 211120Z 2112/2212 16005KT P6SM BKN050
     FM220000 17005KT P6SM SCT050=



000
FTUS41 KCTP 211120
TAFBFD
TAF
KBFD 211120Z 2112/2212 13003KT 3SM BR BKN050
     FM211300 VRB03KT P6SM BKN050
     FM220000 00000KT 4SM BR SCT050=



000
FTUS41 KCTP 211120
TAFAOO
TAF
KAOO 211120Z 2112/2212 17004KT 5SM BR SCT010 BKN050
     FM211300 17005KT P6SM BKN050
     FM220000 00000KT P6SM SCT050=



000
FTUS41 KCTP 210945 AAA
TAFAOO
TAF AMD
KAOO 210945Z 2110/2206 16004KT P6SM SCT015 BKN100
     FM211200 17004KT P6SM SCT025 BKN050
     FM220000 00000KT P6SM SCT050=



000
FTUS41 KCTP 210945 AAA
TAFUNV
TAF AMD
KUNV 210945Z 2110/2206 00000KT P6SM BKN015 BKN100
     FM211200 17003KT P6SM SCT025 BKN050
     FM220000 00000KT P6SM SCT050=



000
FTUS41 KCTP 210945 AAA
TAFAOO
TAF AMD
KAOO 210945Z 2110/2206 16004KT P6SM SCT015 BKN100
     FM211200 17004KT P6SM SCT025 BKN050
     FM220000 00000KT P6SM SCT050=



000
FTUS41 KCTP 210945 AAA
TAFMDT
TAF AMD
KMDT 210945Z 2110/2206 12004KT 6SM BR BKN007
     FM211300 14005KT P6SM SCT025 BKN050
     FM220000 15004KT P6SM SCT050=



000
FTUS41 KCTP 210945 AAA
TAFIPT
TAF AMD
KIPT 210945Z 2110/2206 00000KT P6SM BKN015 BKN100
     FM211300 13005KT P6SM SCT025 BKN050
     FM220000 VRB03KT P6SM SCT050=



000
FTUS41 KCTP 210945 AAA
TAFJST
TAF AMD
KJST 210945Z 2110/2206 17005KT P6SM BKN050
     FM211300 18005KT P6SM SCT025 BKN050
     FM220000 17005KT P6SM SCT050=



000
FTUS41 KCTP 210945 AAA
TAFBFD
TAF AMD
KBFD 210945Z 2110/2206 13003KT 3SM BR SCT025 BKN050
     FM211200 VRB04KT P6SM SCT025 BKN050
     FM220000 VRB02KT 4SM BR SCT050=



000
FTUS41 KCTP 210945 AAA
TAFMDT
TAF AMD
KMDT 210945Z 2110/2206 12004KT 6SM BR BKN007
     FM211300 14005KT P6SM SCT025 BKN050
     FM220000 15004KT P6SM SCT050=



000
FTUS41 KCTP 210945 AAA
TAFJST
TAF AMD
KJST 210945Z 2110/2206 17005KT P6SM BKN050
     FM211300 18005KT P6SM SCT025 BKN050
     FM220000 17005KT P6SM SCT050=



000
FTUS41 KCTP 210945 AAA
TAFUNV
TAF AMD
KUNV 210945Z 2110/2206 00000KT P6SM BKN015 BKN100
     FM211200 17003KT P6SM SCT025 BKN050
     FM220000 00000KT P6SM SCT050=



000
FTUS41 KCTP 210945 AAA
TAFBFD
TAF AMD
KBFD 210945Z 2110/2206 13003KT 3SM BR SCT025 BKN050
     FM211200 VRB04KT P6SM SCT025 BKN050
     FM220000 VRB02KT 4SM BR SCT050=



000
FTUS41 KCTP 210552
TAFAOO
TAF
KAOO 210552Z 2106/2206 00000KT P6SM BKN100
     FM210900 00000KT 3SM BR SCT010 BKN050
     FM211200 17004KT P6SM SCT025 BKN050
     FM220000 00000KT P6SM SCT050=



000
FTUS41 KCTP 210552
TAFUNV
TAF
KUNV 210552Z 2106/2206 00000KT P6SM BKN100
     FM210900 00000KT 5SM BR BKN050
     FM211200 17003KT P6SM SCT025 BKN050
     FM220000 00000KT P6SM SCT050=



000
FTUS41 KCTP 210552
TAFBFD
TAF
KBFD 210552Z 2106/2206 14004KT 6SM BR SCT035
     FM210800 15003KT 3SM BR SCT005 BKN025
     FM211200 VRB04KT P6SM SCT015 BKN030
     FM211800 VRB04KT P6SM SCT025 BKN050
     FM220000 VRB02KT 4SM BR SCT050=



000
FTUS41 KCTP 210552
TAFJST
TAF
KJST 210552Z 2106/2206 17005KT P6SM BKN050
     FM210900 17004KT 4SM BR SCT005 BKN050
     FM211300 18005KT P6SM SCT025 BKN050
     FM220000 17005KT P6SM SCT050=



000
FTUS41 KCTP 210552
TAFMDT
TAF
KMDT 210552Z 2106/2206 16004KT P6SM FEW050
     FM211000 13004KT 6SM BR SCT050
     FM211300 14005KT P6SM BKN050
     FM220000 15004KT P6SM SCT050=



000
FTUS41 KCTP 210552
TAFIPT
TAF
KIPT 210552Z 2106/2206 00000KT P6SM SCT100
     FM211000 00000KT 5SM BR FEW004 SCT100
     FM211300 13005KT P6SM BKN050
     FM220000 VRB03KT P6SM SCT050=



000
FTUS41 KCTP 210552
TAFIPT
TAF
KIPT 210552Z 2106/2206 00000KT P6SM SCT100
     FM211000 00000KT 5SM BR FEW004 SCT100
     FM211300 13005KT P6SM BKN050
     FM220000 VRB03KT P6SM SCT050=



000
FTUS41 KCTP 210552
TAFAOO
TAF
KAOO 210552Z 2106/2206 00000KT P6SM BKN100
     FM210900 00000KT 3SM BR SCT010 BKN050
     FM211200 17004KT P6SM SCT025 BKN050
     FM220000 00000KT P6SM SCT050=



000
FTUS41 KCTP 210552
TAFJST
TAF
KJST 210552Z 2106/2206 17005KT P6SM BKN050
     FM210900 17004KT 4SM BR SCT005 BKN050
     FM211300 18005KT P6SM SCT025 BKN050
     FM220000 17005KT P6SM SCT050=



000
FTUS41 KCTP 210552
TAFBFD
TAF
KBFD 210552Z 2106/2206 14004KT 6SM BR SCT035
     FM210800 15003KT 3SM BR SCT005 BKN025
     FM211200 VRB04KT P6SM SCT015 BKN030
     FM211800 VRB04KT P6SM SCT025 BKN050
     FM220000 VRB02KT 4SM BR SCT050=



000
FTUS41 KCTP 210552
TAFUNV
TAF
KUNV 210552Z 2106/2206 00000KT P6SM BKN100
     FM210900 00000KT 5SM BR BKN050
     FM211200 17003KT P6SM SCT025 BKN050
     FM220000 00000KT P6SM SCT050=



000
FTUS41 KCTP 210552
TAFMDT
TAF
KMDT 210552Z 2106/2206 16004KT P6SM FEW050
     FM211000 13004KT 6SM BR SCT050
     FM211300 14005KT P6SM BKN050
     FM220000 15004KT P6SM SCT050=



000
FTUS41 KCTP 210326 AAA
TAFAOO
TAF AMD
KAOO 210326Z 2103/2124 16005KT P6SM FEW040
     FM211000 VRB02KT 5SM BR SCT015
     FM211200 19006KT P6SM SCT035=



000
FTUS41 KCTP 210326 AAA
TAFUNV
TAF AMD
KUNV 210326Z 2103/2124 15005KT P6SM FEW040
     FM211000 VRB03KT 5SM BR SCT015
     FM211200 20006KT P6SM SCT035=



000
FTUS41 KCTP 210326 AAA
TAFMDT
TAF AMD
KMDT 210326Z 2103/2124 15006KT P6SM SCT050
     FM211000 13005KT 5SM BR SCT015
     FM211200 17006KT P6SM SCT035=



000
FTUS41 KCTP 210326 AAB
TAFBFD
TAF AMD
KBFD 210326Z 2103/2124 16004KT 1 1/2SM BR SCT001
     FM210900 VRB02KT 1/2SM FG BKN003
     FM211300 21007KT P6SM SCT035=



000
FTUS41 KCTP 210326 AAA
TAFMDT
TAF AMD
KMDT 210326Z 2103/2124 15006KT P6SM SCT050
     FM211000 13005KT 5SM BR SCT015
     FM211200 17006KT P6SM SCT035=



000
FTUS41 KCTP 210326 AAA
TAFJST
TAF AMD
KJST 210326Z 2103/2124 15007KT P6SM SCT035
     FM210900 17004KT 2SM BR SCT002
     FM211300 21007KT P6SM SCT035=



000
FTUS41 KCTP 210326 AAA
TAFIPT
TAF AMD
KIPT 210326Z 2103/2124 15005KT P6SM SCT050
     FM211000 12003KT 5SM BR SCT004
     FM211200 15006KT P6SM SCT035=



000
FTUS41 KCTP 210326 AAA
TAFJST
TAF AMD
KJST 210326Z 2103/2124 15007KT P6SM SCT035
     FM210900 17004KT 2SM BR SCT002
     FM211300 21007KT P6SM SCT035=



000
FTUS41 KCTP 210326 AAA
TAFIPT
TAF AMD
KIPT 210326Z 2103/2124 15005KT P6SM SCT050
     FM211000 12003KT 5SM BR SCT004
     FM211200 15006KT P6SM SCT035=



000
FTUS41 KCTP 210326 AAA
TAFAOO
TAF AMD
KAOO 210326Z 2103/2124 16005KT P6SM FEW040
     FM211000 VRB02KT 5SM BR SCT015
     FM211200 19006KT P6SM SCT035=



000
FTUS41 KCTP 210326 AAB
TAFBFD
TAF AMD
KBFD 210326Z 2103/2124 16004KT 1 1/2SM BR SCT001
     FM210900 VRB02KT 1/2SM FG BKN003
     FM211300 21007KT P6SM SCT035=



000
FTUS41 KCTP 210326 AAA
TAFUNV
TAF AMD
KUNV 210326Z 2103/2124 15005KT P6SM FEW040
     FM211000 VRB03KT 5SM BR SCT015
     FM211200 20006KT P6SM SCT035=



000
FTUS41 KCTP 210158 AAA
TAFBFD
TAF AMD
KBFD 210158Z 2102/2124 16004KT 1 1/2SM BR SCT001
     FM210900 VRB02KT 1 1/2SM BR BKN003
     FM211300 21007KT P6SM SCT035=



000
FTUS41 KCTP 210158 AAA
TAFBFD
TAF AMD
KBFD 210158Z 2102/2124 16004KT 1 1/2SM BR SCT001
     FM210900 VRB02KT 1 1/2SM BR BKN003
     FM211300 21007KT P6SM SCT035=



000
FTUS41 KCTP 202333
TAFJST
TAF
KJST 202333Z 2100/2124 14007KT P6SM SCT025 BKN035
     FM210900 17004KT 2SM BR SCT002
     FM211300 21007KT P6SM SCT035=



000
FTUS41 KCTP 202333
TAFAOO
TAF
KAOO 202333Z 2100/2124 16007KT P6SM BKN040
     FM211000 VRB02KT 5SM BR SCT015
     FM211200 19006KT P6SM SCT035=



000
FTUS41 KCTP 202333
TAFBFD
TAF
KBFD 202333Z 2100/2124 17007KT P6SM VCSH SCT025 BKN035
     FM210700 16004KT 3SM BR SCT100
     FM210900 VRB02KT 1 1/2SM BR BKN003
     FM211300 21007KT P6SM SCT035=



000
FTUS41 KCTP 202333
TAFMDT
TAF
KMDT 202333Z 2100/2124 15006KT P6SM BKN050
     FM211000 13005KT 5SM BR SCT015
     FM211200 17006KT P6SM SCT035=



000
FTUS41 KCTP 202333
TAFIPT
TAF
KIPT 202333Z 2100/2124 15005KT P6SM BKN050
     FM211000 12003KT 5SM BR SCT004
     FM211200 15006KT P6SM SCT035=



000
FTUS41 KCTP 202333
TAFBFD
TAF
KBFD 202333Z 2100/2124 17007KT P6SM VCSH SCT025 BKN035
     FM210700 16004KT 3SM BR SCT100
     FM210900 VRB02KT 1 1/2SM BR BKN003
     FM211300 21007KT P6SM SCT035=



000
FTUS41 KCTP 202333
TAFIPT
TAF
KIPT 202333Z 2100/2124 15005KT P6SM BKN050
     FM211000 12003KT 5SM BR SCT004
     FM211200 15006KT P6SM SCT035=



000
FTUS41 KCTP 202333
TAFJST
TAF
KJST 202333Z 2100/2124 14007KT P6SM SCT025 BKN035
     FM210900 17004KT 2SM BR SCT002
     FM211300 21007KT P6SM SCT035=



000
FTUS41 KCTP 202333
TAFAOO
TAF
KAOO 202333Z 2100/2124 16007KT P6SM BKN040
     FM211000 VRB02KT 5SM BR SCT015
     FM211200 19006KT P6SM SCT035=



000
FTUS41 KCTP 202333
TAFUNV
TAF
KUNV 202333Z 2100/2124 15006KT P6SM BKN040
     FM211000 VRB03KT 5SM BR SCT015
     FM211200 20006KT P6SM SCT035=



000
FTUS41 KCTP 202333
TAFMDT
TAF
KMDT 202333Z 2100/2124 15006KT P6SM BKN050
     FM211000 13005KT 5SM BR SCT015
     FM211200 17006KT P6SM SCT035=



000
FTUS41 KCTP 202333
TAFUNV
TAF
KUNV 202333Z 2100/2124 15006KT P6SM BKN040
     FM211000 VRB03KT 5SM BR SCT015
     FM211200 20006KT P6SM SCT035=



000
FTUS41 KCTP 202128 AAA
TAFBFD
TAF AMD
KBFD 202128Z 2021/2118 17007KT P6SM VCSH SCT025 BKN035
     FM210300 16004KT 3SM BR SCT100
     FM210600 VRB02KT 1 1/2SM BR OVC003
     FM211700 22004KT P6SM BKN050=



000
FTUS41 KCTP 202128 AAA
TAFJST
TAF AMD
KJST 202128Z 2021/2118 14007KT P6SM SCT025 BKN035
     FM210900 17004KT 2SM BR SCT002
     FM211500 18004KT 6SM HZ BKN100=



000
FTUS41 KCTP 202128 AAA
TAFJST
TAF AMD
KJST 202128Z 2021/2118 14007KT P6SM SCT025 BKN035
     FM210900 17004KT 2SM BR SCT002
     FM211500 18004KT 6SM HZ BKN100=



000
FTUS41 KCTP 202128 AAA
TAFIPT
TAF AMD
KIPT 202128Z 2021/2118 VRB04KT P6SM BKN050
     FM210600 09003KT 4SM BR BKN010
     FM211500 12003KT P6SM BKN050=



000
FTUS41 KCTP 202128 AAA
TAFMDT
TAF AMD
KMDT 202128Z 2021/2118 15006KT P6SM BKN050
     FM211000 11002KT 4SM BR OVC015
     FM211600 14004KT P6SM BKN050=



000
FTUS41 KCTP 202128 AAA
TAFIPT
TAF AMD
KIPT 202128Z 2021/2118 VRB04KT P6SM BKN050
     FM210600 09003KT 4SM BR BKN010
     FM211500 12003KT P6SM BKN050=



000
FTUS41 KCTP 202128 AAA
TAFUNV
TAF AMD
KUNV 202128Z 2021/2118 15006KT P6SM BKN040
     FM210600 00000KT 4SM BR BKN025
     FM210900 00000KT 1 1/2SM BR OVC007
     FM211600 16003KT 6SM HZ BKN050=



000
FTUS41 KCTP 202128 AAA
TAFAOO
TAF AMD
KAOO 202128Z 2021/2118 14007KT P6SM BKN040
     FM210600 VRB02KT 3SM BR BKN007
     FM211600 16003KT 6SM HZ BKN050=



000
FTUS41 KCTP 202128 AAA
TAFAOO
TAF AMD
KAOO 202128Z 2021/2118 14007KT P6SM BKN040
     FM210600 VRB02KT 3SM BR BKN007
     FM211600 16003KT 6SM HZ BKN050=



000
FTUS41 KCTP 202128 AAA
TAFUNV
TAF AMD
KUNV 202128Z 2021/2118 15006KT P6SM BKN040
     FM210600 00000KT 4SM BR BKN025
     FM210900 00000KT 1 1/2SM BR OVC007
     FM211600 16003KT 6SM HZ BKN050=



000
FTUS41 KCTP 202128 AAA
TAFBFD
TAF AMD
KBFD 202128Z 2021/2118 17007KT P6SM VCSH SCT025 BKN035
     FM210300 16004KT 3SM BR SCT100
     FM210600 VRB02KT 1 1/2SM BR OVC003
     FM211700 22004KT P6SM BKN050=



000
FTUS41 KCTP 202128 AAA
TAFMDT
TAF AMD
KMDT 202128Z 2021/2118 15006KT P6SM BKN050
     FM211000 11002KT 4SM BR OVC015
     FM211600 14004KT P6SM BKN050=



    US Dept of Commerce
    National Oceanic and Atmospheric Administration
    National Weather Service
    1325 East West Highway
    Silver Spring, MD 20910
    Page Author: NWS Internet Services Team
Disclaimer
Information Quality
Credits
Glossary
Privacy Policy
Freedom of Information Act (FOIA)
About Us
Career Opportunities